sensor_id;sensor_type;location;lat;lon;timestamp;P1;durP1;ratioP1;P2;durP2;ratioP2
13445;SDS011;6795;51.232;3.764;2023-05-07T00:03:27;17.05;;;12.85;;
13445;SDS011;6795;51.232;3.764;2023-05-07T00:06:26;20.73;;;13.68;;
13445;SDS011;6795;51.232;3.764;2023-05-07T00:09:46;17.60;;;12.48;;
13445;SDS011;6795;51.232;3.764;2023-05-07T00:12:51;17.75;;;13.23;;
13445;SDS011;6795;51.232;3.764;2023-05-07T00:16:05;18.50;;;11.77;;
13445;SDS011;6795;51.232;3.764;2023-05-07T00:19:27;15.98;;;12.60;;
13445;SDS011;6795;51.232;3.764;2023-05-07T00:22:45;19.30;;;13.05;;
13445;SDS011;6795;51.232;3.764;2023-05-07T00:25:53;19.20;;;12.70;;
13445;SDS011;6795;51.232;3.764;2023-05-07T00:29:13;17.30;;;12.48;;
13445;SDS011;6795;51.232;3.764;2023-05-07T00:32:31;17.92;;;12.35;;
13445;SDS011;6795;51.232;3.764;2023-05-07T00:36:02;17.77;;;12.27;;
13445;SDS011;6795;51.232;3.764;2023-05-07T00:39:20;21.02;;;11.65;;
13445;SDS011;6795;51.232;3.764;2023-05-07T00:43:05;16.27;;;11.52;;
13445;SDS011;6795;51.232;3.764;2023-05-07T00:46:15;18.05;;;12.30;;
13445;SDS011;6795;51.232;3.764;2023-05-07T00:49:45;21.60;;;13.15;;
13445;SDS011;6795;51.232;3.764;2023-05-07T00:53:31;21.25;;;13.05;;
13445;SDS011;6795;51.232;3.764;2023-05-07T00:56:33;17.42;;;13.32;;
13445;SDS011;6795;51.232;3.764;2023-05-07T00:59:53;19.02;;;12.65;;
13445;SDS011;6795;51.232;3.764;2023-05-07T01:03:36;18.15;;;12.18;;
13445;SDS011;6795;51.232;3.764;2023-05-07T01:07:04;18.83;;;13.13;;
13445;SDS011;6795;51.232;3.764;2023-05-07T01:10:32;20.98;;;12.77;;
13445;SDS011;6795;51.232;3.764;2023-05-07T01:13:40;21.42;;;12.70;;
13445;SDS011;6795;51.232;3.764;2023-05-07T01:17:08;18.55;;;13.00;;
13445;SDS011;6795;51.232;3.764;2023-05-07T01:20:07;15.55;;;12.32;;
13445;SDS011;6795;51.232;3.764;2023-05-07T01:31:41;16.58;;;12.93;;
13445;SDS011;6795;51.232;3.764;2023-05-07T01:35:24;24.73;;;14.90;;
13445;SDS011;6795;51.232;3.764;2023-05-07T01:38:54;16.98;;;13.88;;
13445;SDS011;6795;51.232;3.764;2023-05-07T01:41:57;24.38;;;14.73;;
13445;SDS011;6795;51.232;3.764;2023-05-07T01:49:21;19.95;;;14.23;;
13445;SDS011;6795;51.232;3.764;2023-05-07T01:52:44;21.13;;;14.35;;
13445;SDS011;6795;51.232;3.764;2023-05-07T01:56:02;22.70;;;13.43;;
13445;SDS011;6795;51.232;3.764;2023-05-07T01:59:06;20.45;;;14.10;;
13445;SDS011;6795;51.232;3.764;2023-05-07T02:05:45;23.55;;;15.48;;
13445;SDS011;6795;51.232;3.764;2023-05-07T02:09:03;22.58;;;15.07;;
13445;SDS011;6795;51.232;3.764;2023-05-07T02:12:06;27.13;;;15.90;;
13445;SDS011;6795;51.232;3.764;2023-05-07T02:15:44;19.23;;;14.50;;
13445;SDS011;6795;51.232;3.764;2023-05-07T02:23:32;20.90;;;15.35;;
13445;SDS011;6795;51.232;3.764;2023-05-07T02:26:40;19.52;;;15.60;;
13445;SDS011;6795;51.232;3.764;2023-05-07T02:30:03;20.98;;;16.10;;
13445;SDS011;6795;51.232;3.764;2023-05-07T02:33:10;22.75;;;16.95;;
13445;SDS011;6795;51.232;3.764;2023-05-07T02:36:34;22.38;;;16.27;;
13445;SDS011;6795;51.232;3.764;2023-05-07T02:43:36;23.33;;;16.80;;
13445;SDS011;6795;51.232;3.764;2023-05-07T02:46:53;20.67;;;16.23;;
13445;SDS011;6795;51.232;3.764;2023-05-07T02:50:18;20.15;;;16.25;;
13445;SDS011;6795;51.232;3.764;2023-05-07T02:53:41;21.73;;;16.88;;
13445;SDS011;6795;51.232;3.764;2023-05-07T03:00:49;24.30;;;16.58;;
13445;SDS011;6795;51.232;3.764;2023-05-07T03:04:02;28.38;;;17.92;;
13445;SDS011;6795;51.232;3.764;2023-05-07T03:07:36;23.30;;;17.17;;
13445;SDS011;6795;51.232;3.764;2023-05-07T03:10:50;25.45;;;18.00;;
13445;SDS011;6795;51.232;3.764;2023-05-07T03:14:18;23.85;;;18.42;;
13445;SDS011;6795;51.232;3.764;2023-05-07T03:17:23;23.42;;;16.85;;
13445;SDS011;6795;51.232;3.764;2023-05-07T03:20:54;25.67;;;15.45;;
13445;SDS011;6795;51.232;3.764;2023-05-07T03:23:59;23.75;;;17.05;;
13445;SDS011;6795;51.232;3.764;2023-05-07T03:27:23;22.45;;;15.30;;
13445;SDS011;6795;51.232;3.764;2023-05-07T03:38:05;23.90;;;16.98;;
13445;SDS011;6795;51.232;3.764;2023-05-07T03:41:35;26.88;;;16.25;;
13445;SDS011;6795;51.232;3.764;2023-05-07T03:44:40;22.77;;;17.17;;
13445;SDS011;6795;51.232;3.764;2023-05-07T03:48:07;23.80;;;16.30;;
13445;SDS011;6795;51.232;3.764;2023-05-07T03:51:09;23.00;;;15.57;;
13445;SDS011;6795;51.232;3.764;2023-05-07T03:54:30;26.58;;;17.10;;
13445;SDS011;6795;51.232;3.764;2023-05-07T03:57:36;26.23;;;16.45;;
13445;SDS011;6795;51.232;3.764;2023-05-07T04:00:57;27.83;;;17.08;;
13445;SDS011;6795;51.232;3.764;2023-05-07T04:04:01;22.55;;;16.15;;
13445;SDS011;6795;51.232;3.764;2023-05-07T04:07:19;28.45;;;18.23;;
13445;SDS011;6795;51.232;3.764;2023-05-07T04:10:20;24.77;;;18.25;;
13445;SDS011;6795;51.232;3.764;2023-05-07T04:13:40;26.40;;;17.63;;
13445;SDS011;6795;51.232;3.764;2023-05-07T04:16:58;29.05;;;18.23;;
13445;SDS011;6795;51.232;3.764;2023-05-07T04:20:24;28.98;;;18.17;;
13445;SDS011;6795;51.232;3.764;2023-05-07T04:23:47;26.65;;;17.77;;
13445;SDS011;6795;51.232;3.764;2023-05-07T04:27:07;23.30;;;17.02;;
13445;SDS011;6795;51.232;3.764;2023-05-07T04:30:23;20.40;;;16.90;;
13445;SDS011;6795;51.232;3.764;2023-05-07T04:33:41;26.27;;;19.33;;
13445;SDS011;6795;51.232;3.764;2023-05-07T04:36:57;25.38;;;17.83;;
13445;SDS011;6795;51.232;3.764;2023-05-07T04:40:15;23.38;;;18.02;;
13445;SDS011;6795;51.232;3.764;2023-05-07T04:43:17;24.35;;;19.05;;
13445;SDS011;6795;51.232;3.764;2023-05-07T04:46:54;25.17;;;18.42;;
13445;SDS011;6795;51.232;3.764;2023-05-07T04:49:44;22.98;;;18.42;;
13445;SDS011;6795;51.232;3.764;2023-05-07T04:53:29;27.58;;;19.77;;
13445;SDS011;6795;51.232;3.764;2023-05-07T04:56:44;25.63;;;18.65;;
13445;SDS011;6795;51.232;3.764;2023-05-07T05:07:18;25.38;;;19.35;;
13445;SDS011;6795;51.232;3.764;2023-05-07T05:10:43;24.42;;;18.42;;
13445;SDS011;6795;51.232;3.764;2023-05-07T05:14:08;24.25;;;17.80;;
13445;SDS011;6795;51.232;3.764;2023-05-07T05:17:15;28.90;;;18.20;;
13445;SDS011;6795;51.232;3.764;2023-05-07T05:24:29;20.70;;;17.42;;
13445;SDS011;6795;51.232;3.764;2023-05-07T05:27:54;21.95;;;17.95;;
13445;SDS011;6795;51.232;3.764;2023-05-07T05:31:06;23.65;;;17.67;;
13445;SDS011;6795;51.232;3.764;2023-05-07T05:34:15;24.50;;;18.08;;
13445;SDS011;6795;51.232;3.764;2023-05-07T05:37:59;19.65;;;16.73;;
13445;SDS011;6795;51.232;3.764;2023-05-07T05:41:12;27.35;;;18.25;;
13445;SDS011;6795;51.232;3.764;2023-05-07T05:47:46;26.52;;;17.55;;
13445;SDS011;6795;51.232;3.764;2023-05-07T05:51:04;22.23;;;17.70;;
13445;SDS011;6795;51.232;3.764;2023-05-07T05:54:04;26.90;;;18.13;;
13445;SDS011;6795;51.232;3.764;2023-05-07T05:57:36;26.23;;;19.20;;
13445;SDS011;6795;51.232;3.764;2023-05-07T06:01:10;26.80;;;18.35;;
13445;SDS011;6795;51.232;3.764;2023-05-07T06:04:13;22.92;;;19.08;;
13445;SDS011;6795;51.232;3.764;2023-05-07T06:07:37;26.67;;;18.38;;
13445;SDS011;6795;51.232;3.764;2023-05-07T06:10:47;22.98;;;17.90;;
13445;SDS011;6795;51.232;3.764;2023-05-07T06:18:16;25.02;;;16.33;;
13445;SDS011;6795;51.232;3.764;2023-05-07T06:21:32;25.00;;;16.73;;
13445;SDS011;6795;51.232;3.764;2023-05-07T06:24:58;19.58;;;15.75;;
13445;SDS011;6795;51.232;3.764;2023-05-07T06:28:27;25.77;;;16.35;;
13445;SDS011;6795;51.232;3.764;2023-05-07T06:31:38;17.17;;;14.90;;
13445;SDS011;6795;51.232;3.764;2023-05-07T06:35:01;20.38;;;13.05;;
13445;SDS011;6795;51.232;3.764;2023-05-07T06:38:18;19.40;;;11.48;;
13445;SDS011;6795;51.232;3.764;2023-05-07T06:42:00;15.77;;;10.98;;
13445;SDS011;6795;51.232;3.764;2023-05-07T06:45:42;17.45;;;10.77;;
13445;SDS011;6795;51.232;3.764;2023-05-07T06:48:38;16.77;;;9.57;;
13445;SDS011;6795;51.232;3.764;2023-05-07T06:56:29;17.02;;;7.88;;
13445;SDS011;6795;51.232;3.764;2023-05-07T06:59:55;11.20;;;6.70;;
13445;SDS011;6795;51.232;3.764;2023-05-07T07:03:08;18.90;;;7.65;;
13445;SDS011;6795;51.232;3.764;2023-05-07T07:14:06;10.10;;;6.63;;
13445;SDS011;6795;51.232;3.764;2023-05-07T07:21:02;8.52;;;5.05;;
13445;SDS011;6795;51.232;3.764;2023-05-07T07:24:06;9.70;;;4.47;;
13445;SDS011;6795;51.232;3.764;2023-05-07T07:27:17;7.70;;;4.68;;
13445;SDS011;6795;51.232;3.764;2023-05-07T07:30:17;9.15;;;3.55;;
13445;SDS011;6795;51.232;3.764;2023-05-07T07:33:24;4.03;;;2.72;;
13445;SDS011;6795;51.232;3.764;2023-05-07T07:36:42;9.07;;;3.67;;
13445;SDS011;6795;51.232;3.764;2023-05-07T07:40:31;5.38;;;3.65;;
13445;SDS011;6795;51.232;3.764;2023-05-07T07:47:31;8.90;;;5.35;;
13445;SDS011;6795;51.232;3.764;2023-05-07T07:50:39;9.38;;;3.67;;
13445;SDS011;6795;51.232;3.764;2023-05-07T07:54:19;6.20;;;2.95;;
13445;SDS011;6795;51.232;3.764;2023-05-07T07:57:38;6.22;;;2.90;;
13445;SDS011;6795;51.232;3.764;2023-05-07T08:01:22;6.30;;;2.75;;
13445;SDS011;6795;51.232;3.764;2023-05-07T08:04:20;6.15;;;2.65;;
13445;SDS011;6795;51.232;3.764;2023-05-07T08:07:35;7.95;;;3.65;;
13445;SDS011;6795;51.232;3.764;2023-05-07T08:10:47;6.45;;;3.28;;
13445;SDS011;6795;51.232;3.764;2023-05-07T08:14:00;5.28;;;2.80;;
13445;SDS011;6795;51.232;3.764;2023-05-07T08:17:17;9.30;;;3.95;;
13445;SDS011;6795;51.232;3.764;2023-05-07T08:24:01;8.65;;;4.32;;
13445;SDS011;6795;51.232;3.764;2023-05-07T08:27:04;8.18;;;5.93;;
13445;SDS011;6795;51.232;3.764;2023-05-07T08:32:10;6.93;;;4.85;;
13445;SDS011;6795;51.232;3.764;2023-05-07T08:34:13;8.35;;;4.05;;
13445;SDS011;6795;51.232;3.764;2023-05-07T08:44:57;6.07;;;3.80;;
13445;SDS011;6795;51.232;3.764;2023-05-07T08:48:05;10.80;;;5.95;;
13445;SDS011;6795;51.232;3.764;2023-05-07T08:54:39;12.20;;;9.07;;
13445;SDS011;6795;51.232;3.764;2023-05-07T09:01:29;16.58;;;14.93;;
13445;SDS011;6795;51.232;3.764;2023-05-07T09:04:45;5.50;;;4.10;;
13445;SDS011;6795;51.232;3.764;2023-05-07T09:07:52;13.82;;;12.38;;
13445;SDS011;6795;51.232;3.764;2023-05-07T09:11:10;8.55;;;7.65;;
13445;SDS011;6795;51.232;3.764;2023-05-07T09:14:37;6.07;;;5.25;;
13445;SDS011;6795;51.232;3.764;2023-05-07T09:18:05;8.63;;;4.55;;
13445;SDS011;6795;51.232;3.764;2023-05-07T09:21:24;6.68;;;3.58;;
13445;SDS011;6795;51.232;3.764;2023-05-07T09:25:06;3.92;;;2.60;;
13445;SDS011;6795;51.232;3.764;2023-05-07T09:28:50;3.35;;;2.20;;
13445;SDS011;6795;51.232;3.764;2023-05-07T09:35:24;4.40;;;1.40;;
13445;SDS011;6795;51.232;3.764;2023-05-07T09:39:03;3.58;;;1.40;;
13445;SDS011;6795;51.232;3.764;2023-05-07T09:42:27;2.30;;;1.40;;
13445;SDS011;6795;51.232;3.764;2023-05-07T09:46:15;4.40;;;1.63;;
13445;SDS011;6795;51.232;3.764;2023-05-07T09:53:31;3.30;;;1.92;;
13445;SDS011;6795;51.232;3.764;2023-05-07T09:56:54;4.10;;;2.10;;
13445;SDS011;6795;51.232;3.764;2023-05-07T10:00:21;4.05;;;1.83;;
13445;SDS011;6795;51.232;3.764;2023-05-07T10:03:35;5.75;;;1.80;;
13445;SDS011;6795;51.232;3.764;2023-05-07T10:07:02;3.33;;;1.60;;
13445;SDS011;6795;51.232;3.764;2023-05-07T10:10:03;4.82;;;1.98;;
13445;SDS011;6795;51.232;3.764;2023-05-07T10:13:35;2.58;;;1.55;;
13445;SDS011;6795;51.232;3.764;2023-05-07T10:17:09;4.68;;;1.92;;
13445;SDS011;6795;51.232;3.764;2023-05-07T10:20:33;3.92;;;1.40;;
13445;SDS011;6795;51.232;3.764;2023-05-07T10:27:21;3.55;;;1.33;;
13445;SDS011;6795;51.232;3.764;2023-05-07T10:30:24;3.55;;;0.95;;
13445;SDS011;6795;51.232;3.764;2023-05-07T10:33:46;1.15;;;0.70;;
13445;SDS011;6795;51.232;3.764;2023-05-07T10:37:13;6.15;;;1.30;;
13445;SDS011;6795;51.232;3.764;2023-05-07T10:40:38;2.42;;;1.00;;
13445;SDS011;6795;51.232;3.764;2023-05-07T10:44:06;3.72;;;1.17;;
13445;SDS011;6795;51.232;3.764;2023-05-07T10:47:26;4.30;;;1.42;;
13445;SDS011;6795;51.232;3.764;2023-05-07T10:54:37;2.70;;;1.42;;
13445;SDS011;6795;51.232;3.764;2023-05-07T11:02:18;5.45;;;1.83;;
13445;SDS011;6795;51.232;3.764;2023-05-07T11:05:27;3.55;;;1.55;;
13445;SDS011;6795;51.232;3.764;2023-05-07T11:08:30;3.38;;;1.33;;
13445;SDS011;6795;51.232;3.764;2023-05-07T11:11:57;2.75;;;1.40;;
13445;SDS011;6795;51.232;3.764;2023-05-07T11:23:05;160.10;;;140.00;;
13445;SDS011;6795;51.232;3.764;2023-05-07T11:26:10;191.68;;;170.70;;
13445;SDS011;6795;51.232;3.764;2023-05-07T11:29:19;148.35;;;129.38;;
13445;SDS011;6795;51.232;3.764;2023-05-07T11:32:24;117.97;;;96.35;;
13445;SDS011;6795;51.232;3.764;2023-05-07T11:39:38;100.25;;;83.07;;
13445;SDS011;6795;51.232;3.764;2023-05-07T11:42:53;89.35;;;75.10;;
13445;SDS011;6795;51.232;3.764;2023-05-07T11:46:11;35.83;;;31.45;;
13445;SDS011;6795;51.232;3.764;2023-05-07T11:50:17;72.13;;;60.88;;
13445;SDS011;6795;51.232;3.764;2023-05-07T11:56:31;123.97;;;102.63;;
13445;SDS011;6795;51.232;3.764;2023-05-07T12:00:05;166.43;;;137.05;;
13445;SDS011;6795;51.232;3.764;2023-05-07T12:03:21;118.43;;;97.90;;
13445;SDS011;6795;51.232;3.764;2023-05-07T12:06:22;77.07;;;55.60;;
13445;SDS011;6795;51.232;3.764;2023-05-07T12:10:03;7.15;;;5.00;;
13445;SDS011;6795;51.232;3.764;2023-05-07T12:13:27;2.92;;;0.90;;
13445;SDS011;6795;51.232;3.764;2023-05-07T12:16:53;2.63;;;0.85;;
13445;SDS011;6795;51.232;3.764;2023-05-07T12:20:14;5.18;;;3.47;;
13445;SDS011;6795;51.232;3.764;2023-05-07T12:23:24;19.33;;;12.63;;
13445;SDS011;6795;51.232;3.764;2023-05-07T12:30:01;2.45;;;2.25;;
13445;SDS011;6795;51.232;3.764;2023-05-07T12:33:28;4.53;;;2.65;;
13445;SDS011;6795;51.232;3.764;2023-05-07T12:36:57;5.47;;;2.63;;
13445;SDS011;6795;51.232;3.764;2023-05-07T12:40:37;4.97;;;2.95;;
13445;SDS011;6795;51.232;3.764;2023-05-07T12:48:00;10.10;;;7.70;;
13445;SDS011;6795;51.232;3.764;2023-05-07T12:51:15;5.72;;;4.55;;
13445;SDS011;6795;51.232;3.764;2023-05-07T12:54:43;12.15;;;9.25;;
13445;SDS011;6795;51.232;3.764;2023-05-07T12:58:00;49.08;;;37.90;;
13445;SDS011;6795;51.232;3.764;2023-05-07T13:00:59;31.83;;;27.02;;
13445;SDS011;6795;51.232;3.764;2023-05-07T13:08:00;32.20;;;24.73;;
13445;SDS011;6795;51.232;3.764;2023-05-07T13:11:31;28.38;;;21.83;;
13445;SDS011;6795;51.232;3.764;2023-05-07T13:14:33;21.52;;;15.93;;
13445;SDS011;6795;51.232;3.764;2023-05-07T13:17:56;17.23;;;12.73;;
13445;SDS011;6795;51.232;3.764;2023-05-07T13:24:41;21.63;;;17.00;;
13445;SDS011;6795;51.232;3.764;2023-05-07T13:28:11;20.42;;;14.77;;
13445;SDS011;6795;51.232;3.764;2023-05-07T13:33:19;20.45;;;14.70;;
13445;SDS011;6795;51.232;3.764;2023-05-07T13:34:52;22.70;;;14.68;;
13445;SDS011;6795;51.232;3.764;2023-05-07T13:42:06;18.08;;;12.57;;
13445;SDS011;6795;51.232;3.764;2023-05-07T13:44:55;21.45;;;15.00;;
13445;SDS011;6795;51.232;3.764;2023-05-07T13:48:13;23.75;;;15.75;;
13445;SDS011;6795;51.232;3.764;2023-05-07T13:51:38;24.60;;;15.77;;
13445;SDS011;6795;51.232;3.764;2023-05-07T13:55:05;20.40;;;13.80;;
13445;SDS011;6795;51.232;3.764;2023-05-07T13:58:20;20.13;;;12.93;;
13445;SDS011;6795;51.232;3.764;2023-05-07T14:01:32;18.10;;;11.50;;
13445;SDS011;6795;51.232;3.764;2023-05-07T14:04:37;13.55;;;9.80;;
13445;SDS011;6795;51.232;3.764;2023-05-07T14:07:55;9.50;;;5.90;;
13445;SDS011;6795;51.232;3.764;2023-05-07T14:14:59;7.88;;;5.35;;
13445;SDS011;6795;51.232;3.764;2023-05-07T14:19:11;11.70;;;7.13;;
13445;SDS011;6795;51.232;3.764;2023-05-07T14:22:31;10.68;;;6.85;;
13445;SDS011;6795;51.232;3.764;2023-05-07T14:26:01;21.63;;;7.35;;
13445;SDS011;6795;51.232;3.764;2023-05-07T14:33:10;12.32;;;7.30;;
13445;SDS011;6795;51.232;3.764;2023-05-07T14:36:26;26.90;;;19.13;;
13445;SDS011;6795;51.232;3.764;2023-05-07T14:40:01;29.55;;;22.00;;
13445;SDS011;6795;51.232;3.764;2023-05-07T14:43:16;32.05;;;22.05;;
13445;SDS011;6795;51.232;3.764;2023-05-07T14:46:36;32.85;;;21.83;;
13445;SDS011;6795;51.232;3.764;2023-05-07T14:53:58;34.17;;;23.73;;
13445;SDS011;6795;51.232;3.764;2023-05-07T14:57:12;30.55;;;22.80;;
13445;SDS011;6795;51.232;3.764;2023-05-07T15:00:39;34.08;;;23.33;;
13445;SDS011;6795;51.232;3.764;2023-05-07T15:03:47;34.42;;;25.77;;
13445;SDS011;6795;51.232;3.764;2023-05-07T15:07:18;31.80;;;24.20;;
13445;SDS011;6795;51.232;3.764;2023-05-07T15:14:27;27.38;;;23.00;;
13445;SDS011;6795;51.232;3.764;2023-05-07T15:17:21;27.17;;;22.90;;
13445;SDS011;6795;51.232;3.764;2023-05-07T15:20:36;28.73;;;22.83;;
13445;SDS011;6795;51.232;3.764;2023-05-07T15:24:00;35.15;;;24.75;;
13445;SDS011;6795;51.232;3.764;2023-05-07T15:27:18;28.77;;;23.20;;
13445;SDS011;6795;51.232;3.764;2023-05-07T15:30:45;32.05;;;24.50;;
13445;SDS011;6795;51.232;3.764;2023-05-07T15:33:48;30.10;;;22.30;;
13445;SDS011;6795;51.232;3.764;2023-05-07T15:40:18;24.73;;;21.48;;
13445;SDS011;6795;51.232;3.764;2023-05-07T15:43:54;29.52;;;24.30;;
13445;SDS011;6795;51.232;3.764;2023-05-07T15:47:45;33.85;;;23.02;;
13445;SDS011;6795;51.232;3.764;2023-05-07T15:50:44;33.97;;;23.00;;
13445;SDS011;6795;51.232;3.764;2023-05-07T15:53:36;29.38;;;22.70;;
13445;SDS011;6795;51.232;3.764;2023-05-07T15:57:00;27.63;;;20.55;;
13445;SDS011;6795;51.232;3.764;2023-05-07T16:00:11;27.20;;;20.70;;
13445;SDS011;6795;51.232;3.764;2023-05-07T16:04:01;28.55;;;20.52;;
13445;SDS011;6795;51.232;3.764;2023-05-07T16:07:04;29.30;;;21.25;;
13445;SDS011;6795;51.232;3.764;2023-05-07T16:10:16;36.63;;;23.05;;
13445;SDS011;6795;51.232;3.764;2023-05-07T16:13:33;24.48;;;17.45;;
13445;SDS011;6795;51.232;3.764;2023-05-07T16:21:02;14.38;;;10.65;;
13445;SDS011;6795;51.232;3.764;2023-05-07T16:24:19;14.82;;;9.82;;
13445;SDS011;6795;51.232;3.764;2023-05-07T16:27:52;14.45;;;12.13;;
13445;SDS011;6795;51.232;3.764;2023-05-07T16:30:55;18.05;;;14.60;;
13445;SDS011;6795;51.232;3.764;2023-05-07T16:34:25;24.88;;;19.52;;
13445;SDS011;6795;51.232;3.764;2023-05-07T16:37:21;29.85;;;20.88;;
13445;SDS011;6795;51.232;3.764;2023-05-07T16:40:15;26.23;;;20.85;;
13445;SDS011;6795;51.232;3.764;2023-05-07T16:43:37;26.35;;;20.20;;
13445;SDS011;6795;51.232;3.764;2023-05-07T16:46:37;27.70;;;19.08;;
13445;SDS011;6795;51.232;3.764;2023-05-07T16:56:30;25.45;;;18.63;;
13445;SDS011;6795;51.232;3.764;2023-05-07T16:59:54;30.38;;;18.27;;
13445;SDS011;6795;51.232;3.764;2023-05-07T17:02:54;22.08;;;17.55;;
13445;SDS011;6795;51.232;3.764;2023-05-07T17:06:24;24.50;;;18.17;;
13445;SDS011;6795;51.232;3.764;2023-05-07T17:09:23;24.50;;;15.40;;
13445;SDS011;6795;51.232;3.764;2023-05-07T17:16:14;22.00;;;15.40;;
13445;SDS011;6795;51.232;3.764;2023-05-07T17:19:18;18.52;;;14.27;;
13445;SDS011;6795;51.232;3.764;2023-05-07T17:22:19;15.27;;;10.65;;
13445;SDS011;6795;51.232;3.764;2023-05-07T17:25:46;16.90;;;12.90;;
13445;SDS011;6795;51.232;3.764;2023-05-07T17:28:52;17.80;;;10.18;;
13445;SDS011;6795;51.232;3.764;2023-05-07T17:32:20;16.98;;;10.55;;
13445;SDS011;6795;51.232;3.764;2023-05-07T17:35:28;11.05;;;8.18;;
13445;SDS011;6795;51.232;3.764;2023-05-07T17:38:57;13.63;;;7.50;;
13445;SDS011;6795;51.232;3.764;2023-05-07T17:45:03;7.93;;;5.78;;
13445;SDS011;6795;51.232;3.764;2023-05-07T17:48:23;8.13;;;5.68;;
13445;SDS011;6795;51.232;3.764;2023-05-07T17:51:37;9.25;;;5.65;;
13445;SDS011;6795;51.232;3.764;2023-05-07T17:54:38;10.02;;;6.38;;
13445;SDS011;6795;51.232;3.764;2023-05-07T17:58:13;13.13;;;6.60;;
13445;SDS011;6795;51.232;3.764;2023-05-07T18:01:59;9.50;;;6.45;;
13445;SDS011;6795;51.232;3.764;2023-05-07T18:05:18;9.73;;;5.97;;
13445;SDS011;6795;51.232;3.764;2023-05-07T18:08:13;9.77;;;5.25;;
13445;SDS011;6795;51.232;3.764;2023-05-07T18:11:43;11.55;;;5.32;;
13445;SDS011;6795;51.232;3.764;2023-05-07T18:14:46;8.93;;;4.78;;
13445;SDS011;6795;51.232;3.764;2023-05-07T18:18:37;11.10;;;4.80;;
13445;SDS011;6795;51.232;3.764;2023-05-07T18:39:09;8.02;;;5.30;;
13445;SDS011;6795;51.232;3.764;2023-05-07T18:42:40;11.13;;;7.05;;
13445;SDS011;6795;51.232;3.764;2023-05-07T18:45:58;13.05;;;7.90;;
13445;SDS011;6795;51.232;3.764;2023-05-07T18:49:02;12.50;;;8.20;;
13445;SDS011;6795;51.232;3.764;2023-05-07T18:52:24;17.35;;;9.57;;
13445;SDS011;6795;51.232;3.764;2023-05-07T18:55:29;14.52;;;9.30;;
13445;SDS011;6795;51.232;3.764;2023-05-07T18:58:55;18.10;;;9.80;;
13445;SDS011;6795;51.232;3.764;2023-05-07T19:02:00;11.82;;;9.68;;
13445;SDS011;6795;51.232;3.764;2023-05-07T19:05:05;16.42;;;10.80;;
13445;SDS011;6795;51.232;3.764;2023-05-07T19:08:16;15.43;;;11.18;;
13445;SDS011;6795;51.232;3.764;2023-05-07T19:15:49;18.45;;;10.57;;
13445;SDS011;6795;51.232;3.764;2023-05-07T19:18:58;15.63;;;11.02;;
13445;SDS011;6795;51.232;3.764;2023-05-07T19:22:00;25.50;;;11.82;;
13445;SDS011;6795;51.232;3.764;2023-05-07T19:25:09;22.08;;;13.05;;
13445;SDS011;6795;51.232;3.764;2023-05-07T19:28:54;20.27;;;12.80;;
13445;SDS011;6795;51.232;3.764;2023-05-07T19:31:57;23.42;;;14.00;;
13445;SDS011;6795;51.232;3.764;2023-05-07T19:34:55;29.35;;;14.88;;
13445;SDS011;6795;51.232;3.764;2023-05-07T19:38:10;20.50;;;15.02;;
13445;SDS011;6795;51.232;3.764;2023-05-07T19:41:21;26.58;;;16.60;;
13445;SDS011;6795;51.232;3.764;2023-05-07T19:48:05;32.15;;;16.95;;
13445;SDS011;6795;51.232;3.764;2023-05-07T19:51:15;26.48;;;18.17;;
13445;SDS011;6795;51.232;3.764;2023-05-07T19:54:18;34.22;;;21.00;;
13445;SDS011;6795;51.232;3.764;2023-05-07T19:57:51;38.13;;;20.98;;
13445;SDS011;6795;51.232;3.764;2023-05-07T20:01:09;38.13;;;22.63;;
13445;SDS011;6795;51.232;3.764;2023-05-07T20:04:18;31.50;;;19.58;;
13445;SDS011;6795;51.232;3.764;2023-05-07T20:07:20;32.15;;;21.17;;
13445;SDS011;6795;51.232;3.764;2023-05-07T20:10:20;36.00;;;23.00;;
13445;SDS011;6795;51.232;3.764;2023-05-07T20:13:55;41.10;;;23.67;;
13445;SDS011;6795;51.232;3.764;2023-05-07T20:17:04;40.78;;;23.77;;
13445;SDS011;6795;51.232;3.764;2023-05-07T20:24:49;43.72;;;24.42;;
13445;SDS011;6795;51.232;3.764;2023-05-07T20:30:56;54.20;;;28.35;;
13445;SDS011;6795;51.232;3.764;2023-05-07T20:34:14;56.53;;;32.25;;
13445;SDS011;6795;51.232;3.764;2023-05-07T20:48:36;62.13;;;34.88;;
13445;SDS011;6795;51.232;3.764;2023-05-07T20:51:46;64.53;;;34.15;;
13445;SDS011;6795;51.232;3.764;2023-05-07T20:55:14;63.03;;;33.60;;
13445;SDS011;6795;51.232;3.764;2023-05-07T20:58:30;56.05;;;31.77;;
13445;SDS011;6795;51.232;3.764;2023-05-07T21:16:14;69.35;;;38.47;;
13445;SDS011;6795;51.232;3.764;2023-05-07T21:19:24;67.55;;;35.50;;
13445;SDS011;6795;51.232;3.764;2023-05-07T21:22:22;63.40;;;35.20;;
13445;SDS011;6795;51.232;3.764;2023-05-07T21:25:54;77.63;;;36.38;;
13445;SDS011;6795;51.232;3.764;2023-05-07T21:29:14;80.05;;;39.10;;
13445;SDS011;6795;51.232;3.764;2023-05-07T21:32:21;77.82;;;37.83;;
13445;SDS011;6795;51.232;3.764;2023-05-07T21:35:35;68.00;;;37.67;;
13445;SDS011;6795;51.232;3.764;2023-05-07T21:38:53;78.15;;;38.83;;
13445;SDS011;6795;51.232;3.764;2023-05-07T21:42:09;85.85;;;43.45;;
13445;SDS011;6795;51.232;3.764;2023-05-07T21:49:29;85.18;;;46.00;;
13445;SDS011;6795;51.232;3.764;2023-05-07T21:52:37;93.18;;;47.45;;
13445;SDS011;6795;51.232;3.764;2023-05-07T21:55:58;101.47;;;47.38;;
13445;SDS011;6795;51.232;3.764;2023-05-07T21:59:11;95.30;;;47.10;;
13445;SDS011;6795;51.232;3.764;2023-05-07T22:05:51;109.65;;;54.58;;
13445;SDS011;6795;51.232;3.764;2023-05-07T22:08:58;106.10;;;51.55;;
13445;SDS011;6795;51.232;3.764;2023-05-07T22:12:15;112.03;;;51.47;;
13445;SDS011;6795;51.232;3.764;2023-05-07T22:15:32;120.38;;;56.20;;
13445;SDS011;6795;51.232;3.764;2023-05-07T22:19:14;130.57;;;57.75;;
13445;SDS011;6795;51.232;3.764;2023-05-07T22:22:25;150.68;;;57.17;;
13445;SDS011;6795;51.232;3.764;2023-05-07T22:26:07;137.27;;;61.38;;
13445;SDS011;6795;51.232;3.764;2023-05-07T22:29:09;137.20;;;60.97;;
13445;SDS011;6795;51.232;3.764;2023-05-07T22:32:24;127.63;;;57.20;;
13445;SDS011;6795;51.232;3.764;2023-05-07T22:35:58;139.65;;;57.20;;
13445;SDS011;6795;51.232;3.764;2023-05-07T22:39:24;133.98;;;57.70;;
13445;SDS011;6795;51.232;3.764;2023-05-07T22:42:32;140.13;;;59.38;;
13445;SDS011;6795;51.232;3.764;2023-05-07T22:45:58;138.07;;;57.78;;
13445;SDS011;6795;51.232;3.764;2023-05-07T22:48:58;145.15;;;59.83;;
13445;SDS011;6795;51.232;3.764;2023-05-07T22:56:29;145.23;;;60.03;;
13445;SDS011;6795;51.232;3.764;2023-05-07T22:59:47;148.23;;;60.10;;
13445;SDS011;6795;51.232;3.764;2023-05-07T23:03:33;152.00;;;64.38;;
13445;SDS011;6795;51.232;3.764;2023-05-07T23:06:30;163.35;;;64.28;;
13445;SDS011;6795;51.232;3.764;2023-05-07T23:16:57;161.82;;;64.03;;
13445;SDS011;6795;51.232;3.764;2023-05-07T23:20:20;173.18;;;76.18;;
13445;SDS011;6795;51.232;3.764;2023-05-07T23:23:38;164.18;;;64.20;;
13445;SDS011;6795;51.232;3.764;2023-05-07T23:26:48;180.90;;;78.88;;
13445;SDS011;6795;51.232;3.764;2023-05-07T23:37:06;192.57;;;85.50;;
13445;SDS011;6795;51.232;3.764;2023-05-07T23:40:20;181.88;;;80.82;;
13445;SDS011;6795;51.232;3.764;2023-05-07T23:43:25;193.98;;;80.85;;
13445;SDS011;6795;51.232;3.764;2023-05-07T23:49:58;196.73;;;86.82;;
13445;SDS011;6795;51.232;3.764;2023-05-07T23:53:15;198.63;;;86.72;;
13445;SDS011;6795;51.232;3.764;2023-05-07T23:56:23;206.45;;;90.15;;
13445;SDS011;6795;51.232;3.764;2023-05-07T23:59:37;212.18;;;92.43;;
